createdAt,value
2023-03-12T00:00:55.139Z,3.00
2023-03-12T00:03:41.849Z,3.83
2023-03-12T00:06:29.174Z,4.47
2023-03-12T00:09:15.735Z,3.90
2023-03-12T00:12:02.165Z,4.50
2023-03-12T00:14:48.674Z,3.33
2023-03-12T00:17:36.444Z,8.60
2023-03-12T00:20:23.496Z,7.17
2023-03-12T00:23:10.051Z,4.73
2023-03-12T00:26:01.257Z,4.37
2023-03-12T00:28:49.136Z,3.03
2023-03-12T00:31:36.475Z,3.80
2023-03-12T00:34:24.581Z,5.27
2023-03-12T00:37:11.317Z,5.20
2023-03-12T00:39:57.947Z,6.23
2023-03-12T00:42:44.445Z,2.23
2023-03-12T00:45:30.909Z,3.20
2023-03-12T00:48:17.177Z,4.80
2023-03-12T00:51:05.323Z,8.27
2023-03-12T00:53:51.776Z,4.03
2023-03-12T00:56:38.821Z,3.70
2023-03-12T00:59:25.512Z,4.00
2023-03-12T01:02:12.035Z,2.97
2023-03-12T01:04:58.420Z,3.37
2023-03-12T01:07:46.172Z,3.20
2023-03-12T01:10:33.049Z,3.70
2023-03-12T01:13:19.478Z,3.93
2023-03-12T01:16:06.464Z,4.43
2023-03-12T01:18:53.094Z,3.87
2023-03-12T01:21:39.620Z,3.70
2023-03-12T01:24:27.317Z,3.27
2023-03-12T01:27:13.781Z,2.73
2023-03-12T01:30:00.410Z,4.13
2023-03-12T01:32:46.894Z,5.63
2023-03-12T01:35:37.850Z,3.20
2023-03-12T01:38:24.691Z,5.03
2023-03-12T01:41:13.258Z,4.87
2023-03-12T01:44:01.615Z,5.33
2023-03-12T01:46:48.233Z,3.63
2023-03-12T01:49:35.970Z,4.70
2023-03-12T01:52:25.903Z,6.20
2023-03-12T01:55:16.204Z,5.17
2023-03-12T01:58:04.091Z,4.97
2023-03-12T02:00:50.851Z,5.27
2023-03-12T02:03:38.804Z,6.67
2023-03-12T02:06:31.531Z,3.97
2023-03-12T02:09:20.639Z,3.97
2023-03-12T02:12:08.373Z,8.03
2023-03-12T02:14:56.369Z,9.13
2023-03-12T02:17:43.248Z,4.57
2023-03-12T02:20:37.646Z,7.30
2023-03-12T02:23:30.070Z,4.57
2023-03-12T02:26:20.158Z,3.90
2023-03-12T02:29:08.003Z,8.47
2023-03-12T02:31:57.002Z,7.20
2023-03-12T02:34:43.377Z,4.27
2023-03-12T02:37:29.955Z,4.73
2023-03-12T02:40:22.945Z,6.40
2023-03-12T02:43:11.792Z,5.60
2023-03-12T02:45:58.273Z,5.40
2023-03-12T02:48:45.154Z,3.43
2023-03-12T02:51:31.997Z,4.90
2023-03-12T02:54:20.197Z,8.47
2023-03-12T02:57:06.855Z,3.87
2023-03-12T02:59:54.518Z,5.53
2023-03-12T03:02:41.738Z,6.33
2023-03-12T03:05:28.569Z,5.97
2023-03-12T03:08:15.219Z,4.43
2023-03-12T03:11:03.132Z,6.30
2023-03-12T03:13:49.670Z,6.20
2023-03-12T03:16:37.972Z,5.77
2023-03-12T03:19:24.779Z,4.10
2023-03-12T03:22:11.493Z,6.53
2023-03-12T03:24:57.942Z,3.63
2023-03-12T03:27:44.398Z,3.70
2023-03-12T03:30:31.532Z,4.53
2023-03-12T03:33:19.574Z,5.10
2023-03-12T03:36:07.797Z,5.93
2023-03-12T03:38:54.538Z,3.67
2023-03-12T03:41:41.057Z,3.63
2023-03-12T03:44:27.827Z,5.07
2023-03-12T03:47:14.641Z,3.33
2023-03-12T03:50:02.283Z,3.90
2023-03-12T03:52:48.660Z,3.17
2023-03-12T03:55:37.512Z,4.57
2023-03-12T03:58:24.219Z,5.33
2023-03-12T04:01:11.299Z,6.93
2023-03-12T04:03:58.003Z,3.47
2023-03-12T04:06:45.725Z,3.83
2023-03-12T04:09:32.569Z,3.07
2023-03-12T04:12:19.485Z,5.07
2023-03-12T04:15:06.910Z,4.40
2023-03-12T04:17:53.482Z,4.93
2023-03-12T04:20:39.922Z,6.67
2023-03-12T04:23:27.934Z,4.83
2023-03-12T04:26:14.860Z,4.67
2023-03-12T04:29:01.730Z,4.63
2023-03-12T04:31:48.564Z,5.67
2023-03-12T04:34:35.647Z,4.50
2023-03-12T04:37:22.600Z,3.77
2023-03-12T04:40:12.545Z,5.37
2023-03-12T04:42:59.216Z,4.63
2023-03-12T04:45:45.506Z,3.97
2023-03-12T04:48:32.324Z,3.23
2023-03-12T04:51:19.121Z,5.47
2023-03-12T04:54:05.957Z,4.40
2023-03-12T04:56:53.699Z,2.73
2023-03-12T04:59:40.442Z,3.23
2023-03-12T05:02:26.766Z,4.90
2023-03-12T05:05:13.358Z,4.70
2023-03-12T05:08:00.302Z,4.53
2023-03-12T05:10:47.158Z,3.17
2023-03-12T05:13:34.860Z,3.77
2023-03-12T05:16:21.453Z,4.00
2023-03-12T05:19:08.381Z,4.10
2023-03-12T05:21:55.021Z,4.07
2023-03-12T05:24:41.422Z,3.77
2023-03-12T05:27:27.980Z,5.67
2023-03-12T05:30:16.448Z,5.37
2023-03-12T05:33:03.037Z,6.13
2023-03-12T05:35:49.598Z,4.70
2023-03-12T05:38:36.129Z,6.40
2023-03-12T05:41:25.067Z,7.10
2023-03-12T05:44:13.642Z,7.10
2023-03-12T05:47:01.417Z,7.07
2023-03-12T05:49:48.155Z,7.93
2023-03-12T05:52:34.963Z,6.00
2023-03-12T05:55:21.423Z,9.83
2023-03-12T05:58:08.918Z,10.13
2023-03-12T06:00:55.658Z,4.30
2023-03-12T06:03:43.957Z,3.73
2023-03-12T06:06:32.078Z,7.70
2023-03-12T06:09:18.482Z,7.87
2023-03-12T06:12:06.218Z,8.13
2023-03-12T06:14:52.760Z,7.80
2023-03-12T06:17:39.631Z,9.67
2023-03-12T06:20:27.557Z,7.37
2023-03-12T06:23:14.525Z,6.50
2023-03-12T06:26:01.141Z,5.43
2023-03-12T06:28:48.467Z,4.33
2023-03-12T06:31:37.327Z,4.33
2023-03-12T06:34:25.503Z,4.77
2023-03-12T06:37:13.566Z,4.63
2023-03-12T06:40:00.197Z,3.63
2023-03-12T06:42:46.734Z,3.57
2023-03-12T06:45:33.654Z,1.80
2023-03-12T06:48:19.899Z,5.60
2023-03-12T06:51:06.863Z,5.20
2023-03-12T06:53:54.540Z,4.83
2023-03-12T06:56:41.268Z,4.57
2023-03-12T06:59:28.583Z,4.70
2023-03-12T07:02:15.022Z,2.60
2023-03-12T07:05:01.825Z,6.13
2023-03-12T07:07:48.687Z,3.50
2023-03-12T07:10:36.450Z,2.20
2023-03-12T07:13:22.979Z,2.10
2023-03-12T07:16:10.215Z,2.80
2023-03-12T07:18:56.832Z,1.87
2023-03-12T07:21:43.185Z,3.17
2023-03-12T07:24:29.647Z,2.77
2023-03-12T07:27:17.472Z,2.60
2023-03-12T07:30:03.973Z,5.40
2023-03-12T07:32:50.358Z,2.30
2023-03-12T07:35:38.740Z,2.87
2023-03-12T07:38:25.277Z,3.47
2023-03-12T07:41:12.083Z,1.97
2023-03-12T07:43:59.794Z,2.83
2023-03-12T07:46:47.038Z,3.97
2023-03-12T07:49:33.375Z,3.17
2023-03-12T07:52:20.363Z,3.67
2023-03-12T07:55:08.135Z,2.83
2023-03-12T07:57:56.542Z,4.33
2023-03-12T08:00:45.165Z,3.47
2023-03-12T08:03:32.184Z,2.70
2023-03-12T08:06:18.965Z,2.53
2023-03-12T08:09:05.924Z,3.60
2023-03-12T08:11:52.547Z,2.30
2023-03-12T08:14:39.297Z,3.53
2023-03-12T08:17:27.409Z,1.70
2023-03-12T08:20:14.490Z,2.60
2023-03-12T08:23:01.299Z,3.67
2023-03-12T08:25:48.166Z,4.10
2023-03-12T08:28:34.594Z,3.40
2023-03-12T08:31:21.248Z,3.83
2023-03-12T08:34:09.399Z,2.20
2023-03-12T08:36:56.563Z,3.70
2023-03-12T08:39:43.256Z,3.17
2023-03-12T08:42:29.846Z,2.10
2023-03-12T08:45:16.806Z,3.30
2023-03-12T08:48:03.411Z,1.90
2023-03-12T08:50:51.401Z,1.73
2023-03-12T08:53:38.296Z,2.27
2023-03-12T08:56:25.040Z,1.83
2023-03-12T08:59:11.842Z,2.83
2023-03-12T09:01:58.196Z,3.57
2023-03-12T09:04:48.431Z,4.40
2023-03-12T09:07:36.920Z,2.37
2023-03-12T09:10:23.693Z,4.13
2023-03-12T09:13:10.010Z,7.03
2023-03-12T09:16:01.137Z,3.40
2023-03-12T09:18:47.816Z,2.53
2023-03-12T09:21:34.256Z,4.70
2023-03-12T09:24:21.974Z,2.07
2023-03-12T09:27:09.046Z,3.50
2023-03-12T09:30:00.491Z,4.33
2023-03-12T09:32:48.120Z,2.80
2023-03-12T09:35:34.704Z,1.63
2023-03-12T09:38:21.256Z,4.53
2023-03-12T09:41:19.308Z,3.20
2023-03-12T09:44:12.499Z,2.37
2023-03-12T09:47:02.981Z,2.70
2023-03-12T09:49:53.635Z,1.80
2023-03-12T09:52:45.484Z,2.00
2023-03-12T09:55:37.994Z,6.03
2023-03-12T09:58:30.324Z,2.30
2023-03-12T10:01:38.652Z,2.63
2023-03-12T10:04:37.783Z,2.33
2023-03-12T10:07:35.801Z,2.33
2023-03-12T10:10:31.759Z,2.83
2023-03-12T10:13:34.436Z,6.10
2023-03-12T10:16:36.197Z,2.10
2023-03-12T10:19:36.963Z,2.10
2023-03-12T10:22:36.581Z,5.20
2023-03-12T10:25:30.468Z,4.30
2023-03-12T10:28:20.753Z,3.93
2023-03-12T10:31:16.958Z,2.93
2023-03-12T10:34:10.186Z,2.83
2023-03-12T10:37:01.116Z,3.90
2023-03-12T10:39:48.844Z,4.60
2023-03-12T10:42:35.320Z,2.73
2023-03-12T10:45:32.921Z,4.13
2023-03-12T10:48:24.148Z,2.40
2023-03-12T10:51:12.888Z,3.10
2023-03-12T10:53:59.514Z,4.20
2023-03-12T10:56:50.973Z,2.73
2023-03-12T10:59:39.304Z,2.80
2023-03-12T11:02:35.721Z,2.53
2023-03-12T11:05:25.904Z,2.10
2023-03-12T11:08:23.403Z,3.80
2023-03-12T11:11:11.548Z,5.13
2023-03-12T11:14:08.960Z,4.30
2023-03-12T11:16:57.206Z,3.53
2023-03-12T11:19:43.771Z,3.50
2023-03-12T11:22:33.656Z,3.00
2023-03-12T11:25:24.538Z,5.80
2023-03-12T11:28:20.518Z,4.17
2023-03-12T11:31:11.224Z,3.83
2023-03-12T11:34:04.359Z,5.37
2023-03-12T11:36:57.379Z,4.70
2023-03-12T11:39:59.820Z,4.90
2023-03-12T11:43:01.932Z,2.97
2023-03-12T11:46:04.845Z,5.77
2023-03-12T11:49:03.652Z,3.93
2023-03-12T11:51:57.871Z,2.73
2023-03-12T11:55:06.387Z,3.17
2023-03-12T11:58:07.272Z,7.80
2023-03-12T12:00:58.978Z,5.80
2023-03-12T12:04:10.967Z,4.67
2023-03-12T12:07:10.001Z,4.40
2023-03-12T12:10:03.245Z,3.40
2023-03-12T12:12:58.375Z,5.47
2023-03-12T12:15:53.078Z,4.33
2023-03-12T12:18:54.515Z,4.17
2023-03-12T12:22:01.735Z,4.80
2023-03-12T12:25:12.456Z,6.00
2023-03-12T12:28:16.567Z,5.30
2023-03-12T12:31:17.551Z,6.07
2023-03-12T12:34:47.194Z,5.37
2023-03-12T12:37:44.434Z,6.97
2023-03-12T12:40:37.501Z,5.07
2023-03-12T12:43:29.133Z,5.10
2023-03-12T12:46:19.104Z,5.20
2023-03-12T12:49:11.084Z,5.37
2023-03-12T12:52:00.987Z,3.93
2023-03-12T12:54:56.047Z,4.03
2023-03-12T12:57:46.935Z,5.57
2023-03-12T13:00:48.478Z,3.93
2023-03-12T13:03:34.918Z,4.50
2023-03-12T13:06:21.352Z,6.93
2023-03-12T13:09:36.876Z,3.70
2023-03-12T13:12:30.510Z,3.53
2023-03-12T13:18:24.198Z,4.13
2023-03-12T13:21:21.178Z,4.23
2023-03-12T13:24:20.519Z,5.90
2023-03-12T13:27:14.295Z,3.57
2023-03-12T13:30:21.133Z,7.90
2023-03-12T13:33:14.071Z,4.20
2023-03-12T13:36:11.323Z,4.83
2023-03-12T13:39:00.312Z,5.33
2023-03-12T13:41:49.898Z,4.70
2023-03-12T13:44:40.453Z,5.27
2023-03-12T13:47:30.384Z,4.77
2023-03-12T13:50:18.956Z,4.10
2023-03-12T13:53:09.470Z,6.27
2023-03-12T13:56:05.628Z,4.07
2023-03-12T13:58:57.491Z,4.33
2023-03-12T14:01:49.994Z,5.87
2023-03-12T14:04:40.835Z,6.17
2023-03-12T14:07:46.143Z,7.97
2023-03-12T14:10:44.565Z,7.03
2023-03-12T14:13:48.956Z,6.60
2023-03-12T14:16:39.981Z,5.80
2023-03-12T14:19:28.971Z,6.80
2023-03-12T14:22:16.412Z,7.37
2023-03-12T14:25:07.659Z,7.20
2023-03-12T14:27:55.753Z,5.07
2023-03-12T14:30:47.847Z,7.60
2023-03-12T14:33:37.647Z,6.07
2023-03-12T14:36:28.177Z,6.80
2023-03-12T14:39:26.101Z,6.20
2023-03-12T14:42:21.655Z,5.20
2023-03-12T14:45:15.218Z,6.30
2023-03-12T14:48:01.973Z,6.17
2023-03-12T14:50:48.841Z,7.80
2023-03-12T14:53:37.139Z,7.10
2023-03-12T14:56:29.428Z,6.70
2023-03-12T14:59:29.310Z,5.77
2023-03-12T15:02:20.884Z,6.67
2023-03-12T15:05:15.991Z,7.43
2023-03-12T15:08:04.360Z,11.70
2023-03-12T15:10:55.811Z,7.40
2023-03-12T15:13:42.606Z,11.33
2023-03-12T15:16:29.508Z,13.47
2023-03-12T15:19:21.210Z,11.87
2023-03-12T15:22:11.779Z,11.70
2023-03-12T15:25:03.348Z,11.70
2023-03-12T15:27:50.501Z,11.00
2023-03-12T15:30:38.561Z,15.43
2023-03-12T15:33:25.718Z,15.63
2023-03-12T15:36:27.821Z,14.87
2023-03-12T15:39:26.411Z,18.10
2023-03-12T15:42:19.501Z,15.23
2023-03-12T15:45:09.882Z,16.00
2023-03-12T15:47:56.858Z,15.60
2023-03-12T15:50:44.728Z,16.50
2023-03-12T15:53:34.458Z,16.63
2023-03-12T15:56:24.417Z,17.73
2023-03-12T15:59:24.363Z,19.60
2023-03-12T16:02:13.347Z,18.30
2023-03-12T16:05:00.296Z,19.90
2023-03-12T16:07:46.952Z,17.87
2023-03-12T16:10:37.357Z,16.87
2023-03-12T16:13:28.587Z,21.37
2023-03-12T16:16:16.178Z,15.13
2023-03-12T16:19:03.468Z,16.67
2023-03-12T16:21:50.536Z,16.20
2023-03-12T16:24:37.193Z,16.60
2023-03-12T16:27:32.535Z,14.00
2023-03-12T16:30:24.989Z,13.97
2023-03-12T16:33:15.630Z,14.73
2023-03-12T16:36:02.431Z,14.83
2023-03-12T16:38:49.340Z,17.90
2023-03-12T16:41:35.810Z,19.30
2023-03-12T16:44:24.458Z,16.60
2023-03-12T16:47:12.732Z,22.60
2023-03-12T16:49:59.616Z,23.03
2023-03-12T16:52:48.154Z,18.73
2023-03-12T16:55:45.976Z,25.40
2023-03-12T16:58:32.566Z,18.77
2023-03-12T17:01:24.202Z,22.13
2023-03-12T17:04:12.375Z,22.83
2023-03-12T17:06:59.037Z,25.13
2023-03-12T17:09:45.548Z,22.53
2023-03-12T17:12:35.647Z,23.77
2023-03-12T17:15:25.843Z,27.80
2023-03-12T17:18:14.349Z,22.13
2023-03-12T17:21:01.086Z,30.60
2023-03-12T17:23:50.486Z,25.57
2023-03-12T17:26:37.128Z,29.53
2023-03-12T17:29:23.388Z,24.23
2023-03-12T17:32:09.886Z,26.53
2023-03-12T17:35:03.111Z,32.40
2023-03-12T17:37:49.660Z,22.70
2023-03-12T17:40:36.631Z,30.20
2023-03-12T17:43:23.654Z,26.53
2023-03-12T17:46:11.029Z,23.50
2023-03-12T17:48:58.271Z,22.10
2023-03-12T17:51:46.373Z,23.77
2023-03-12T17:54:32.849Z,21.93
2023-03-12T17:57:19.485Z,21.07
2023-03-12T18:00:12.798Z,22.90
2023-03-12T18:03:00.172Z,22.47
2023-03-12T18:05:46.656Z,16.20
2023-03-12T18:08:34.582Z,18.40
2023-03-12T18:11:20.954Z,18.97
2023-03-12T18:14:07.254Z,20.37
2023-03-12T18:16:53.725Z,13.13
2023-03-12T18:19:40.044Z,20.03
2023-03-12T18:22:27.016Z,13.57
2023-03-12T18:25:14.680Z,14.57
2023-03-12T18:28:01.460Z,15.07
2023-03-12T18:30:47.837Z,17.13
2023-03-12T18:33:35.272Z,13.87
2023-03-12T18:36:21.997Z,13.13
2023-03-12T18:39:09.801Z,13.13
2023-03-12T18:41:57.476Z,17.60
2023-03-12T18:44:44.030Z,15.57
2023-03-12T18:47:31.364Z,19.07
2023-03-12T18:50:18.257Z,17.57
2023-03-12T18:53:05.276Z,18.40
2023-03-12T18:55:53.280Z,16.90
2023-03-12T18:58:41.306Z,15.10
2023-03-12T19:01:28.083Z,17.73
2023-03-12T19:04:17.790Z,13.93
2023-03-12T19:07:05.195Z,17.90
2023-03-12T19:09:51.524Z,19.10
2023-03-12T19:12:51.051Z,15.83
2023-03-12T19:15:40.467Z,14.27
2023-03-12T19:18:27.237Z,14.17
2023-03-12T19:21:13.975Z,16.53
2023-03-12T19:24:00.404Z,15.80
2023-03-12T19:26:46.810Z,21.47
2023-03-12T19:29:33.383Z,17.87
2023-03-12T19:32:23.533Z,20.80
2023-03-12T19:35:13.501Z,12.27
2023-03-12T19:38:01.939Z,16.90
2023-03-12T19:40:50.224Z,15.47
2023-03-12T19:43:36.959Z,18.17
2023-03-12T19:46:23.670Z,17.30
2023-03-12T19:49:11.462Z,14.40
2023-03-12T19:51:58.067Z,20.17
2023-03-12T19:54:51.708Z,15.70
2023-03-12T19:57:41.877Z,15.17
2023-03-12T20:00:28.588Z,17.70
2023-03-12T20:03:15.208Z,18.50
2023-03-12T20:06:03.108Z,18.80
2023-03-12T20:08:50.069Z,22.90
2023-03-12T20:11:36.753Z,19.77
2023-03-12T20:14:23.450Z,21.37
2023-03-12T20:17:09.956Z,14.83
2023-03-12T20:19:56.282Z,17.93
2023-03-12T20:22:43.966Z,24.13
2023-03-12T20:25:30.775Z,24.87
2023-03-12T20:28:17.556Z,21.13
2023-03-12T20:31:08.949Z,18.27
2023-03-12T20:33:55.328Z,22.13
2023-03-12T20:36:41.922Z,16.80
2023-03-12T20:39:29.625Z,19.70
2023-03-12T20:42:16.360Z,17.40
2023-03-12T20:45:02.882Z,18.13
2023-03-12T20:47:49.384Z,17.60
2023-03-12T20:50:39.085Z,32.50
2023-03-12T20:53:25.856Z,24.97
2023-03-12T20:56:14.108Z,33.53
2023-03-12T20:59:00.920Z,24.50
2023-03-12T21:01:47.583Z,23.73
2023-03-12T21:04:34.112Z,26.60
2023-03-12T21:07:20.584Z,28.60
2023-03-12T21:10:08.362Z,35.00
2023-03-12T21:12:57.557Z,20.87
2023-03-12T21:15:44.256Z,17.17
2023-03-12T21:18:31.254Z,25.00
2023-03-12T21:21:18.215Z,21.97
2023-03-12T21:24:05.141Z,26.43
2023-03-12T21:26:51.666Z,25.70
2023-03-12T21:29:39.716Z,22.03
2023-03-12T21:32:26.526Z,24.53
2023-03-12T21:35:12.944Z,23.03
2023-03-12T21:37:59.891Z,22.33
2023-03-12T21:40:46.335Z,17.47
2023-03-12T21:43:32.746Z,19.77
2023-03-12T21:46:24.784Z,23.07
2023-03-12T21:49:11.511Z,21.07
2023-03-12T21:51:58.611Z,21.30
2023-03-12T21:54:45.080Z,22.37
2023-03-12T21:57:31.679Z,16.23
2023-03-12T22:00:18.723Z,25.23
2023-03-12T22:03:06.863Z,20.83
2023-03-12T22:05:53.214Z,17.97
2023-03-12T22:08:40.398Z,23.43
2023-03-12T22:11:27.125Z,18.03
2023-03-12T22:14:14.062Z,22.50
2023-03-12T22:17:00.692Z,26.00
2023-03-12T22:19:48.801Z,22.70
2023-03-12T22:22:35.529Z,14.13
2023-03-12T22:25:21.883Z,19.23
2023-03-12T22:28:08.372Z,21.50
2023-03-12T22:30:58.992Z,15.63
2023-03-12T22:33:45.912Z,13.90
2023-03-12T22:36:33.953Z,21.60
2023-03-12T22:39:20.270Z,15.97
2023-03-12T22:42:06.875Z,20.40
2023-03-12T22:44:53.275Z,18.53
2023-03-12T22:47:39.717Z,19.23
2023-03-12T22:50:26.147Z,14.33
2023-03-12T22:53:13.930Z,13.80
2023-03-12T22:56:01.773Z,23.47
2023-03-12T22:58:48.935Z,22.70
2023-03-12T23:01:35.473Z,20.53
2023-03-12T23:04:21.956Z,17.57
2023-03-12T23:07:14.494Z,13.03
2023-03-12T23:10:06.116Z,14.70
2023-03-12T23:12:52.553Z,15.13
2023-03-12T23:15:41.191Z,21.60
2023-03-12T23:18:28.261Z,17.83
2023-03-12T23:21:16.795Z,11.87
2023-03-12T23:24:03.333Z,18.03
2023-03-12T23:26:51.172Z,19.77
2023-03-12T23:29:37.803Z,18.90
2023-03-12T23:32:24.510Z,17.23
2023-03-12T23:35:11.137Z,19.80
2023-03-12T23:37:58.123Z,12.43
2023-03-12T23:40:46.492Z,17.87
2023-03-12T23:43:35.009Z,9.50
2023-03-12T23:46:21.882Z,19.63
2023-03-12T23:49:08.976Z,23.20
2023-03-12T23:51:55.299Z,14.30
2023-03-12T23:54:41.708Z,19.23
2023-03-12T23:57:28.243Z,16.43
